LFLY/LYN METAR and TAF weather

Enter ICAO airport designator
Station Type Date Time Source
LFLY METAR 2020/01/22 18:00 UTC NOAA

LFLY 221800Z AUTO 34002KT 7000 NSC 02/M00 Q1030 TEMPO 3000 BR


Station Type Date Time Source
LFLY Decoded METAR 2020/01/22 18:00 UTC NOAA

Lyon / Bron, France (LFLY) 45-43N 004-57E 201M
Jan 22, 2020 - 01:00 PM EST / 2020.01.22 1800 UTC
Wind: from the NNW (340 degrees) at 2 MPH (2 KT):0
Visibility: 4 mile(s):0
Temperature: 35 F (2 C)
Dew Point: 32 F (0 C)
Relative Humidity: 86%
Pressure (altimeter): 30.42 in. Hg (1030 hPa)
ob: LFLY 221800Z AUTO 34002KT 7000 NSC 02/M00 Q1030 TEMPO 3000 BR
cycle: 18

Station Type Date Time Source
LFLY TAF 2020/01/22 18:47 UTC NOAA

TAF LFLY 221700Z 2218/2318 VRB02KT 7000 NSW NSC PROB40 2218/2224 3000 BR
TEMPO 2300/2312 2000 BR BKN007 PROB30
TEMPO 2302/2310 0800 FZFG BKN002

Example: see airport list